createdAt,value
2018-08-28T00:01:19.650Z,17.10
2018-08-28T00:04:23.282Z,17.10
2018-08-28T00:07:26.921Z,17.20
2018-08-28T00:10:30.538Z,17.20
2018-08-28T00:13:34.203Z,17.20
2018-08-28T00:16:37.805Z,17.10
2018-08-28T00:19:41.439Z,17.00
2018-08-28T00:22:45.559Z,16.90
2018-08-28T00:25:49.197Z,16.90
2018-08-28T00:28:53.441Z,16.90
2018-08-28T00:31:57.073Z,16.90
2018-08-28T00:35:00.984Z,16.90
2018-08-28T00:38:04.618Z,16.90
2018-08-28T00:41:08.372Z,16.80
2018-08-28T00:44:12.045Z,16.80
2018-08-28T00:47:15.645Z,16.80
2018-08-28T00:50:19.277Z,16.70
2018-08-28T00:53:22.874Z,16.70
2018-08-28T00:56:26.498Z,16.70
2018-08-28T00:59:30.102Z,16.70
2018-08-28T01:02:33.759Z,16.70
2018-08-28T01:05:37.495Z,16.70
2018-08-28T01:08:41.198Z,16.70
2018-08-28T01:11:44.792Z,16.80
2018-08-28T01:14:48.758Z,16.80
2018-08-28T01:17:52.497Z,16.80
2018-08-28T01:20:56.157Z,16.80
2018-08-28T01:23:59.765Z,16.80
2018-08-28T01:27:03.443Z,16.80
2018-08-28T01:30:07.042Z,16.80
2018-08-28T01:33:10.669Z,16.80
2018-08-28T01:36:14.457Z,16.80
2018-08-28T01:39:18.258Z,16.70
2018-08-28T01:42:23.392Z,16.70
2018-08-28T01:45:27.048Z,16.70
2018-08-28T01:48:30.757Z,16.70
2018-08-28T01:51:34.373Z,16.60
2018-08-28T01:54:38.062Z,16.60
2018-08-28T01:57:41.683Z,16.50
2018-08-28T02:00:45.654Z,16.50
2018-08-28T02:03:49.561Z,16.50
2018-08-28T02:06:53.165Z,16.50
2018-08-28T02:09:56.884Z,16.40
2018-08-28T02:13:00.494Z,16.40
2018-08-28T02:16:04.117Z,16.30
2018-08-28T02:19:07.748Z,16.30
2018-08-28T02:22:11.417Z,16.30
2018-08-28T02:25:15.018Z,16.30
2018-08-28T02:28:18.673Z,16.20
2018-08-28T02:31:22.399Z,16.20
2018-08-28T02:34:26.067Z,16.20
2018-08-28T02:37:29.646Z,16.20
2018-08-28T02:40:33.290Z,16.20
2018-08-28T02:43:36.919Z,16.10
2018-08-28T02:46:40.543Z,16.10
2018-08-28T02:49:44.156Z,16.00
2018-08-28T02:52:47.779Z,15.90
2018-08-28T02:55:51.374Z,15.80
2018-08-28T02:58:55.252Z,15.80
2018-08-28T03:01:58.879Z,15.80
2018-08-28T03:05:02.525Z,15.70
2018-08-28T03:08:06.144Z,15.70
2018-08-28T03:11:09.804Z,15.70
2018-08-28T03:14:13.397Z,15.70
2018-08-28T03:17:17.974Z,15.80
2018-08-28T03:20:21.593Z,15.80
2018-08-28T03:23:25.230Z,15.70
2018-08-28T03:26:28.839Z,15.70
2018-08-28T03:29:32.774Z,15.80
2018-08-28T03:32:36.450Z,15.80
2018-08-28T03:35:40.090Z,15.80
2018-08-28T03:38:43.710Z,15.80
2018-08-28T03:41:47.338Z,15.80
2018-08-28T03:44:51.209Z,15.80
2018-08-28T03:47:54.709Z,15.80
2018-08-28T03:50:58.441Z,15.80
2018-08-28T03:54:02.061Z,15.90
2018-08-28T03:57:05.709Z,15.80
2018-08-28T04:00:09.343Z,15.80
2018-08-28T04:03:12.975Z,15.80
2018-08-28T04:06:16.613Z,15.80
2018-08-28T04:09:20.221Z,15.80
2018-08-28T04:12:23.875Z,15.90
2018-08-28T04:15:27.521Z,15.80
2018-08-28T04:18:31.145Z,15.80
2018-08-28T04:21:34.822Z,15.80
2018-08-28T04:24:38.442Z,15.90
2018-08-28T04:27:42.053Z,15.90
2018-08-28T04:30:45.754Z,15.90
2018-08-28T04:33:49.303Z,15.90
2018-08-28T04:36:52.935Z,15.90
2018-08-28T04:39:56.741Z,15.90
2018-08-28T04:43:00.397Z,15.90
2018-08-28T04:46:03.996Z,15.90
2018-08-28T04:49:07.617Z,15.90
2018-08-28T04:52:11.233Z,16.00
2018-08-28T04:55:14.863Z,16.00
2018-08-28T04:58:18.465Z,16.00
2018-08-28T05:01:22.098Z,16.10
2018-08-28T05:04:25.703Z,16.00
2018-08-28T05:07:29.329Z,16.10
2018-08-28T05:10:32.926Z,16.10
2018-08-28T05:13:36.572Z,16.20
2018-08-28T05:16:40.186Z,16.20
2018-08-28T05:19:43.827Z,16.20
2018-08-28T05:22:47.607Z,16.20
2018-08-28T05:25:51.234Z,16.20
2018-08-28T05:28:54.842Z,16.30
2018-08-28T05:31:58.935Z,16.30
2018-08-28T05:35:02.556Z,16.50
2018-08-28T05:38:06.206Z,16.50
2018-08-28T05:41:09.950Z,16.60
2018-08-28T05:44:13.589Z,16.70
2018-08-28T05:47:17.198Z,16.80
2018-08-28T05:50:20.834Z,16.80
2018-08-28T05:53:24.690Z,16.80
2018-08-28T05:56:28.309Z,16.90
2018-08-28T05:59:31.908Z,17.20
2018-08-28T06:02:35.543Z,17.50
2018-08-28T06:05:39.178Z,17.90
2018-08-28T06:08:42.816Z,18.40
2018-08-28T06:11:46.594Z,18.80
2018-08-28T06:14:50.264Z,19.10
2018-08-28T06:17:53.940Z,19.30
2018-08-28T06:20:57.592Z,19.50
2018-08-28T06:24:01.217Z,19.50
2018-08-28T06:27:04.850Z,19.30
2018-08-28T06:30:08.478Z,19.50
2018-08-28T06:33:12.117Z,19.80
2018-08-28T06:36:15.767Z,20.10
2018-08-28T06:39:19.423Z,20.10
2018-08-28T06:42:23.039Z,20.30
2018-08-28T06:45:26.683Z,20.60
2018-08-28T06:48:30.299Z,20.80
2018-08-28T06:51:33.947Z,20.80
2018-08-28T06:54:40.761Z,21.10
2018-08-28T06:57:44.409Z,21.30
2018-08-28T07:00:48.103Z,21.50
2018-08-28T07:03:51.796Z,21.00
2018-08-28T07:06:55.409Z,21.60
2018-08-28T07:09:59.047Z,22.30
2018-08-28T07:13:02.671Z,22.70
2018-08-28T07:16:06.725Z,23.10
2018-08-28T07:19:10.458Z,22.70
2018-08-28T07:22:14.091Z,22.70
2018-08-28T07:25:17.714Z,22.70
2018-08-28T07:28:21.369Z,22.80
2018-08-28T07:31:25.070Z,22.80
2018-08-28T07:34:28.634Z,22.70
2018-08-28T07:37:32.342Z,22.90
2018-08-28T07:40:35.947Z,23.00
2018-08-28T07:43:39.571Z,22.70
2018-08-28T07:46:43.296Z,22.60
2018-08-28T07:49:46.899Z,22.70
2018-08-28T07:52:50.543Z,23.10
2018-08-28T07:55:54.133Z,23.20
2018-08-28T07:58:57.801Z,23.20
2018-08-28T08:02:01.475Z,23.30
2018-08-28T08:05:05.106Z,23.60
2018-08-28T08:08:08.722Z,23.40
2018-08-28T08:11:12.349Z,23.30
2018-08-28T08:14:15.956Z,23.50
2018-08-28T08:17:19.582Z,23.40
2018-08-28T08:20:23.532Z,23.20
2018-08-28T08:23:27.634Z,23.30
2018-08-28T08:26:31.270Z,23.60
2018-08-28T08:29:35.293Z,23.40
2018-08-28T08:32:38.901Z,23.30
2018-08-28T08:35:42.585Z,23.50
2018-08-28T08:38:46.224Z,23.30
2018-08-28T08:41:49.880Z,23.60
2018-08-28T08:44:53.486Z,23.40
2018-08-28T08:47:57.114Z,23.40
2018-08-28T08:51:00.713Z,23.10
2018-08-28T08:54:04.340Z,22.60
2018-08-28T08:57:07.990Z,22.70
2018-08-28T09:00:11.875Z,22.80
2018-08-28T09:03:15.493Z,23.20
2018-08-28T09:06:19.138Z,23.10
2018-08-28T09:09:22.753Z,23.20
2018-08-28T09:12:26.451Z,23.00
2018-08-28T09:15:30.054Z,22.70
2018-08-28T09:18:33.681Z,22.80
2018-08-28T09:21:37.325Z,22.30
2018-08-28T09:24:40.950Z,22.40
2018-08-28T09:27:44.626Z,22.50
2018-08-28T09:30:48.270Z,22.50
2018-08-28T09:33:51.875Z,22.80
2018-08-28T09:36:55.502Z,23.00
2018-08-28T09:39:59.129Z,23.10
2018-08-28T09:43:02.745Z,23.10
2018-08-28T09:46:06.365Z,23.20
2018-08-28T09:49:10.026Z,23.30
2018-08-28T09:52:13.638Z,23.30
2018-08-28T09:55:17.258Z,23.60
2018-08-28T09:58:20.865Z,23.90
2018-08-28T10:04:51.020Z,23.80
2018-08-28T10:07:54.833Z,24.00
2018-08-28T10:10:58.370Z,23.90
2018-08-28T10:14:02.038Z,23.90
2018-08-28T10:17:05.743Z,24.10
2018-08-28T10:20:09.412Z,23.60
2018-08-28T10:23:13.044Z,23.20
2018-08-28T10:26:16.647Z,23.20
2018-08-28T10:29:20.275Z,23.30
2018-08-28T10:32:23.882Z,23.00
2018-08-28T10:35:27.514Z,23.00
2018-08-28T10:38:31.375Z,23.30
2018-08-28T10:41:35.068Z,23.40
2018-08-28T10:44:38.651Z,23.70
2018-08-28T10:47:42.333Z,23.70
2018-08-28T10:50:45.951Z,23.70
2018-08-28T10:53:49.606Z,24.00
2018-08-28T10:56:53.219Z,24.20
2018-08-28T10:59:56.862Z,23.70
2018-08-28T11:03:00.481Z,23.40
2018-08-28T11:06:04.139Z,23.20
2018-08-28T11:09:07.748Z,23.00
2018-08-28T11:12:11.366Z,22.90
2018-08-28T11:15:15.055Z,22.90
2018-08-28T11:18:18.799Z,22.90
2018-08-28T11:21:22.388Z,22.90
2018-08-28T11:24:26.028Z,23.10
2018-08-28T11:27:29.662Z,23.40
2018-08-28T11:30:33.300Z,23.60
2018-08-28T11:33:36.952Z,23.30
2018-08-28T11:36:40.583Z,23.70
2018-08-28T11:39:44.200Z,23.70
2018-08-28T11:42:47.865Z,23.70
2018-08-28T11:45:51.483Z,23.50
2018-08-28T11:48:55.119Z,23.40
2018-08-28T11:51:58.826Z,23.40
2018-08-28T11:55:02.419Z,23.30
2018-08-28T11:58:06.294Z,23.40
2018-08-28T12:01:09.942Z,23.30
2018-08-28T12:04:13.560Z,23.20
2018-08-28T12:07:17.221Z,23.10
2018-08-28T12:10:20.845Z,23.10
2018-08-28T12:13:24.450Z,23.10
2018-08-28T12:16:28.067Z,23.20
2018-08-28T12:19:31.817Z,23.30
2018-08-28T12:22:35.476Z,23.30
2018-08-28T12:25:39.123Z,23.40
2018-08-28T12:28:42.782Z,23.50
2018-08-28T12:31:46.646Z,23.50
2018-08-28T12:34:50.299Z,23.60
2018-08-28T12:37:53.926Z,23.70
2018-08-28T12:40:57.549Z,23.70
2018-08-28T12:44:01.314Z,23.90
2018-08-28T12:47:04.799Z,23.90
2018-08-28T12:50:09.272Z,23.50
2018-08-28T12:53:12.866Z,23.50
2018-08-28T12:56:16.526Z,23.60
2018-08-28T12:59:20.139Z,23.70
2018-08-28T13:02:24.156Z,23.40
2018-08-28T13:05:27.668Z,23.50
2018-08-28T13:08:31.307Z,23.60
2018-08-28T13:11:34.935Z,23.80
2018-08-28T13:14:38.728Z,23.80
2018-08-28T13:17:42.325Z,23.80
2018-08-28T13:20:45.958Z,23.80
2018-08-28T13:23:49.639Z,23.70
2018-08-28T13:26:53.250Z,23.70
2018-08-28T13:29:56.883Z,23.60
2018-08-28T13:33:00.525Z,23.40
2018-08-28T13:36:04.125Z,23.20
2018-08-28T13:39:08.058Z,23.20
2018-08-28T13:42:11.630Z,23.10
2018-08-28T13:45:15.263Z,23.30
2018-08-28T13:48:18.933Z,23.50
2018-08-28T13:51:22.671Z,23.70
2018-08-28T13:54:26.329Z,23.80
2018-08-28T13:57:29.896Z,23.80
2018-08-28T14:00:33.741Z,23.80
2018-08-28T14:03:37.469Z,23.80
2018-08-28T14:06:41.081Z,23.70
2018-08-28T14:09:44.720Z,23.60
2018-08-28T14:12:48.388Z,23.50
2018-08-28T14:15:51.977Z,23.40
2018-08-28T14:18:55.607Z,23.30
2018-08-28T14:21:59.244Z,23.00
2018-08-28T14:25:02.883Z,23.00
2018-08-28T14:28:06.531Z,23.00
2018-08-28T14:31:10.184Z,23.00
2018-08-28T14:34:13.812Z,22.90
2018-08-28T14:37:17.467Z,22.90
2018-08-28T14:43:47.094Z,23.00
2018-08-28T14:46:50.747Z,22.90
2018-08-28T14:49:54.581Z,22.70
2018-08-28T14:52:57.999Z,22.80
2018-08-28T14:56:01.644Z,22.90
2018-08-28T14:59:05.263Z,22.80
2018-08-28T15:02:08.909Z,22.90
2018-08-28T15:05:12.547Z,22.90
2018-08-28T15:08:16.170Z,22.90
2018-08-28T15:11:19.798Z,22.90
2018-08-28T15:14:23.655Z,22.60
2018-08-28T15:17:27.535Z,22.40
2018-08-28T15:20:31.155Z,22.30
2018-08-28T15:23:34.783Z,22.30
2018-08-28T15:26:38.446Z,22.30
2018-08-28T15:29:42.078Z,22.30
2018-08-28T15:32:45.759Z,22.20
2018-08-28T15:35:49.531Z,22.20
2018-08-28T15:42:03.079Z,22.50
2018-08-28T15:45:06.853Z,22.60
2018-08-28T15:48:10.708Z,22.60
2018-08-28T15:51:14.411Z,22.60
2018-08-28T15:54:18.067Z,22.70
2018-08-28T15:57:21.664Z,22.50
2018-08-28T16:00:25.681Z,22.40
2018-08-28T16:03:29.282Z,22.30
2018-08-28T16:06:32.906Z,22.30
2018-08-28T16:09:36.625Z,22.40
2018-08-28T16:12:40.598Z,22.40
2018-08-28T16:15:44.187Z,22.40
2018-08-28T16:18:47.826Z,22.40
2018-08-28T16:21:53.631Z,22.30
2018-08-28T16:24:57.238Z,22.20
2018-08-28T16:28:00.904Z,22.20
2018-08-28T16:31:04.546Z,22.10
2018-08-28T16:34:09.568Z,22.00
2018-08-28T16:37:13.292Z,22.00
2018-08-28T16:40:16.834Z,22.00
2018-08-28T16:43:20.462Z,21.90
2018-08-28T16:46:24.095Z,21.90
2018-08-28T16:49:27.751Z,21.90
2018-08-28T16:52:31.453Z,21.90
2018-08-28T16:55:35.045Z,21.80
2018-08-28T16:58:38.718Z,21.80
2018-08-28T17:01:42.465Z,21.80
2018-08-28T17:04:45.968Z,21.70
2018-08-28T17:07:49.566Z,21.70
2018-08-28T17:10:53.210Z,21.60
2018-08-28T17:13:56.835Z,21.60
2018-08-28T17:17:00.473Z,21.50
2018-08-28T17:20:04.073Z,21.50
2018-08-28T17:23:07.731Z,21.40
2018-08-28T17:26:11.359Z,21.30
2018-08-28T17:29:14.988Z,21.30
2018-08-28T17:32:18.590Z,21.30
2018-08-28T17:35:22.229Z,21.20
2018-08-28T17:38:25.828Z,21.10
2018-08-28T17:41:29.552Z,20.90
2018-08-28T17:44:33.130Z,20.80
2018-08-28T17:47:36.858Z,20.60
2018-08-28T17:50:40.434Z,20.50
2018-08-28T17:53:44.053Z,20.30
2018-08-28T17:56:47.799Z,20.20
2018-08-28T17:59:51.397Z,20.10
2018-08-28T18:02:55.015Z,20.00
2018-08-28T18:05:58.655Z,19.90
2018-08-28T18:09:02.376Z,19.90
2018-08-28T18:12:06.019Z,19.80
2018-08-28T18:15:09.683Z,19.70
2018-08-28T18:18:13.387Z,19.60
2018-08-28T18:21:17.090Z,19.50
2018-08-28T18:24:20.701Z,19.30
2018-08-28T18:27:24.318Z,19.10
2018-08-28T18:30:27.947Z,18.90
2018-08-28T18:33:31.574Z,18.80
2018-08-28T18:36:35.178Z,18.60
2018-08-28T18:39:38.795Z,18.50
2018-08-28T18:42:42.509Z,18.50
2018-08-28T18:45:46.142Z,18.40
2018-08-28T18:48:49.813Z,18.20
2018-08-28T18:51:53.527Z,18.20
2018-08-28T18:54:57.135Z,18.10
2018-08-28T18:58:00.793Z,18.00
2018-08-28T19:01:04.407Z,18.00
2018-08-28T19:04:08.089Z,17.90
2018-08-28T19:07:11.710Z,17.80
2018-08-28T19:10:15.481Z,17.70
2018-08-28T19:13:19.121Z,17.80
2018-08-28T19:16:22.770Z,17.80
2018-08-28T19:19:26.451Z,17.70
2018-08-28T19:22:30.123Z,17.70
2018-08-28T19:25:33.750Z,17.60
2018-08-28T19:28:37.490Z,17.50
2018-08-28T19:31:41.093Z,17.50
2018-08-28T19:34:44.699Z,17.40
2018-08-28T19:37:48.358Z,17.40
2018-08-28T19:40:51.971Z,17.30
2018-08-28T19:43:55.691Z,17.30
2018-08-28T19:46:59.326Z,17.40
2018-08-28T19:50:02.961Z,17.40
2018-08-28T19:53:06.582Z,17.50
2018-08-28T19:56:10.524Z,17.50
2018-08-28T19:59:14.157Z,17.50
2018-08-28T20:02:17.770Z,17.40
2018-08-28T20:05:21.394Z,17.30
2018-08-28T20:08:25.040Z,17.10
2018-08-28T20:11:28.671Z,17.00
2018-08-28T20:14:32.334Z,16.90
2018-08-28T20:17:35.917Z,16.90
2018-08-28T20:20:39.599Z,16.80
2018-08-28T20:23:43.174Z,16.70
2018-08-28T20:26:46.821Z,16.70
2018-08-28T20:29:50.499Z,16.60
2018-08-28T20:32:54.263Z,16.60
2018-08-28T20:35:57.873Z,16.60
2018-08-28T20:39:01.511Z,16.50
2018-08-28T20:42:05.282Z,16.40
2018-08-28T20:45:08.917Z,16.50
2018-08-28T20:48:12.530Z,16.50
2018-08-28T20:51:16.185Z,16.50
2018-08-28T20:54:19.785Z,16.50
2018-08-28T20:57:23.463Z,16.50
2018-08-28T21:00:28.502Z,16.40
2018-08-28T21:03:32.128Z,16.40
2018-08-28T21:06:35.798Z,16.40
2018-08-28T21:09:39.356Z,16.40
2018-08-28T21:12:43.013Z,16.30
2018-08-28T21:15:46.720Z,16.30
2018-08-28T21:18:50.363Z,16.30
2018-08-28T21:21:54.091Z,16.30
2018-08-28T21:24:57.678Z,16.30
2018-08-28T21:28:01.296Z,16.30
2018-08-28T21:31:04.999Z,16.30
2018-08-28T21:34:08.582Z,16.30
2018-08-28T21:37:12.205Z,16.30
2018-08-28T21:40:15.835Z,16.20
2018-08-28T21:43:19.459Z,16.10
2018-08-28T21:46:23.074Z,16.00
2018-08-28T21:49:26.710Z,15.90
2018-08-28T21:52:30.370Z,15.70
2018-08-28T21:55:34.018Z,15.60
2018-08-28T21:58:37.777Z,15.60
2018-08-28T22:01:41.422Z,15.50
2018-08-28T22:04:45.026Z,15.50
2018-08-28T22:07:48.660Z,15.40
2018-08-28T22:10:52.273Z,15.30
2018-08-28T22:13:55.922Z,15.30
2018-08-28T22:16:59.541Z,15.30
2018-08-28T22:20:03.182Z,15.30
2018-08-28T22:23:06.938Z,15.20
2018-08-28T22:26:10.578Z,15.20
2018-08-28T22:29:14.195Z,15.20
2018-08-28T22:32:17.955Z,15.10
2018-08-28T22:35:21.567Z,15.00
2018-08-28T22:38:25.178Z,15.10
2018-08-28T22:41:28.803Z,15.00
2018-08-28T22:44:32.425Z,15.00
2018-08-28T22:47:36.059Z,14.90
2018-08-28T22:50:39.685Z,14.90
2018-08-28T22:53:43.294Z,14.80
2018-08-28T22:56:46.909Z,14.80
2018-08-28T22:59:50.581Z,14.80
2018-08-28T23:02:55.184Z,14.70
2018-08-28T23:05:58.807Z,14.70
2018-08-28T23:09:02.438Z,14.70
2018-08-28T23:12:06.068Z,14.60
2018-08-28T23:15:09.711Z,14.60
2018-08-28T23:18:13.354Z,14.50
2018-08-28T23:21:17.021Z,14.50
2018-08-28T23:24:20.919Z,14.50
2018-08-28T23:27:24.522Z,14.40
2018-08-28T23:30:28.145Z,14.30
2018-08-28T23:33:31.786Z,14.30
2018-08-28T23:36:35.394Z,14.30
2018-08-28T23:39:39.013Z,14.30
2018-08-28T23:42:42.620Z,14.20
2018-08-28T23:45:46.247Z,14.20
2018-08-28T23:48:49.869Z,14.20
2018-08-28T23:51:53.641Z,14.10
2018-08-28T23:54:57.230Z,14.10
2018-08-28T23:58:00.949Z,14.00
